DLH9LA EDDF-EDDP
Flight info
| Callsign | DLH9LA |
|---|---|
| Flight time | 0h 44m |
| Altitude | 23000 |
| Route | SULUS7S/18 SULUS Z12 LASGA/N0351F220 T953 VOCIM/N0345F210 T954 GOXLI GOXLI1V |
| Aircraft | A319/M-SDE2E3FGIJ1LORWXYZ/HB1 |
Departure
| Time | 2026-05-05 11:42 |
|---|---|
| Airport | Frankfurt Main Airport (EDDF) |
Arrival
| Time | 2026-05-05 12:27 |
|---|---|
| Airport | Leipzig/Halle Airport (EDDP) |
| Time | Latitude | Longitude | Altitude | Speed | Heading |
|---|---|---|---|---|---|
| 2026-05-05 11:02 | 50.04852 | 8.58900 | 366 ft | 0 kts | 341° |
| 2026-05-05 11:30 | 50.04850 | 8.58901 | 366 ft | 1 kts | 341° |
| 2026-05-05 11:30 | 50.04836 | 8.58909 | 365 ft | 2 kts | 341° |
| 2026-05-05 11:31 | 50.04822 | 8.58916 | 365 ft | 2 kts | 341° |
| 2026-05-05 11:31 | 50.04808 | 8.58924 | 364 ft | 2 kts | 341° |
| 2026-05-05 11:31 | 50.04794 | 8.58932 | 364 ft | 2 kts | 341° |
| 2026-05-05 11:31 | 50.04782 | 8.58939 | 364 ft | 0 kts | 341° |
| 2026-05-05 11:32 | 50.04774 | 8.58944 | 363 ft | 1 kts | 308° |
| 2026-05-05 11:32 | 50.04771 | 8.58957 | 363 ft | 0 kts | 256° |
| 2026-05-05 11:32 | 50.04774 | 8.58967 | 363 ft | 0 kts | 246° |
| 2026-05-05 11:32 | 50.04775 | 8.58972 | 363 ft | 0 kts | 250° |
| 2026-05-05 11:34 | 50.04773 | 8.58963 | 363 ft | 6 kts | 250° |
| 2026-05-05 11:34 | 50.04733 | 8.58793 | 364 ft | 22 kts | 249° |
| 2026-05-05 11:34 | 50.04673 | 8.58562 | 371 ft | 21 kts | 249° |
| 2026-05-05 11:35 | 50.04623 | 8.58353 | 378 ft | 19 kts | 250° |
| 2026-05-05 11:35 | 50.04575 | 8.58153 | 378 ft | 21 kts | 250° |
| 2026-05-05 11:35 | 50.04519 | 8.57920 | 375 ft | 24 kts | 250° |
| 2026-05-05 11:35 | 50.04458 | 8.57665 | 369 ft | 26 kts | 250° |
| 2026-05-05 11:36 | 50.04393 | 8.57390 | 370 ft | 26 kts | 250° |
| 2026-05-05 11:36 | 50.04330 | 8.57126 | 370 ft | 25 kts | 250° |
| 2026-05-05 11:36 | 50.04267 | 8.56864 | 368 ft | 26 kts | 250° |
| 2026-05-05 11:36 | 50.04201 | 8.56589 | 361 ft | 27 kts | 250° |
| 2026-05-05 11:37 | 50.04137 | 8.56318 | 359 ft | 25 kts | 250° |
| 2026-05-05 11:37 | 50.04073 | 8.56058 | 355 ft | 26 kts | 250° |
| 2026-05-05 11:37 | 50.04010 | 8.55786 | 352 ft | 27 kts | 250° |
| 2026-05-05 11:37 | 50.03944 | 8.55515 | 352 ft | 26 kts | 250° |
| 2026-05-05 11:38 | 50.03881 | 8.55253 | 351 ft | 25 kts | 250° |
| 2026-05-05 11:38 | 50.03818 | 8.54987 | 347 ft | 27 kts | 250° |
| 2026-05-05 11:38 | 50.03755 | 8.54725 | 344 ft | 25 kts | 249° |
| 2026-05-05 11:38 | 50.03696 | 8.54476 | 341 ft | 24 kts | 250° |
| 2026-05-05 11:39 | 50.03634 | 8.54217 | 342 ft | 25 kts | 250° |
| 2026-05-05 11:39 | 50.03573 | 8.53963 | 344 ft | 24 kts | 250° |
| 2026-05-05 11:39 | 50.03516 | 8.53723 | 346 ft | 23 kts | 250° |
| 2026-05-05 11:39 | 50.03465 | 8.53511 | 346 ft | 20 kts | 250° |
| 2026-05-05 11:40 | 50.03413 | 8.53291 | 342 ft | 22 kts | 250° |
| 2026-05-05 11:40 | 50.03357 | 8.53059 | 340 ft | 23 kts | 250° |
| 2026-05-05 11:40 | 50.03302 | 8.52826 | 340 ft | 22 kts | 250° |
| 2026-05-05 11:40 | 50.03236 | 8.52631 | 339 ft | 19 kts | 217° |
| 2026-05-05 11:41 | 50.03149 | 8.52595 | 337 ft | 0 kts | 180° |
| 2026-05-05 11:41 | 50.03078 | 8.52595 | 335 ft | 40 kts | 180° |
| 2026-05-05 11:42 | 50.02494 | 8.52595 | 330 ft | 124 kts | 179° |
| 2026-05-05 11:42 | 50.01456 | 8.52590 | 637 ft | 162 kts | 183° |
| 2026-05-05 11:42 | 50.00291 | 8.52541 | 1328 ft | 176 kts | 182° |
| 2026-05-05 11:42 | 49.99105 | 8.52556 | 2351 ft | 173 kts | 181° |
| 2026-05-05 11:43 | 49.98029 | 8.52583 | 3093 ft | 154 kts | 182° |
| 2026-05-05 11:43 | 49.96925 | 8.52743 | 3678 ft | 171 kts | 161° |
| 2026-05-05 11:43 | 49.95992 | 8.54045 | 3999 ft | 205 kts | 122° |
| 2026-05-05 11:43 | 49.95264 | 8.56186 | 3973 ft | 233 kts | 118° |
| 2026-05-05 11:44 | 49.94509 | 8.58459 | 3987 ft | 238 kts | 115° |
| 2026-05-05 11:44 | 49.94027 | 8.60904 | 4014 ft | 244 kts | 99° |
| 2026-05-05 11:44 | 49.93875 | 8.63637 | 4312 ft | 265 kts | 94° |
| 2026-05-05 11:44 | 49.93787 | 8.66516 | 5153 ft | 277 kts | 95° |
| 2026-05-05 11:45 | 49.93339 | 8.69374 | 6258 ft | 276 kts | 121° |
| 2026-05-05 11:45 | 49.92062 | 8.71523 | 7418 ft | 273 kts | 145° |
| 2026-05-05 11:45 | 49.90506 | 8.73183 | 8520 ft | 275 kts | 146° |
| 2026-05-05 11:45 | 49.89021 | 8.74972 | 9506 ft | 278 kts | 136° |
| 2026-05-05 11:46 | 49.87781 | 8.77279 | 10264 ft | 281 kts | 124° |
| 2026-05-05 11:46 | 49.86786 | 8.79883 | 10703 ft | 283 kts | 120° |
| 2026-05-05 11:46 | 49.85823 | 8.82581 | 11001 ft | 289 kts | 120° |
| 2026-05-05 11:46 | 49.84851 | 8.85309 | 11771 ft | 296 kts | 120° |
| 2026-05-05 11:47 | 49.83864 | 8.88061 | 12798 ft | 295 kts | 120° |
| 2026-05-05 11:47 | 49.82861 | 8.90845 | 13704 ft | 298 kts | 121° |
| 2026-05-05 11:47 | 49.81851 | 8.93637 | 14546 ft | 302 kts | 121° |
| 2026-05-05 11:47 | 49.80827 | 8.96459 | 15362 ft | 306 kts | 121° |
| 2026-05-05 11:48 | 49.78721 | 9.02240 | 16855 ft | 315 kts | 122° |
| 2026-05-05 11:48 | 49.77643 | 9.05199 | 17616 ft | 319 kts | 122° |
| 2026-05-05 11:48 | 49.76638 | 9.08266 | 18365 ft | 324 kts | 117° |
| 2026-05-05 11:49 | 49.75842 | 9.11536 | 19103 ft | 330 kts | 110° |
| 2026-05-05 11:49 | 49.75243 | 9.14971 | 19825 ft | 335 kts | 108° |
| 2026-05-05 11:49 | 49.74696 | 9.18433 | 20548 ft | 339 kts | 107° |
| 2026-05-05 11:49 | 49.74135 | 9.21975 | 21244 ft | 343 kts | 107° |
| 2026-05-05 11:50 | 49.73561 | 9.25550 | 21921 ft | 347 kts | 107° |
| 2026-05-05 11:50 | 49.72970 | 9.29207 | 22519 ft | 351 kts | 108° |
| 2026-05-05 11:50 | 49.72380 | 9.32840 | 22803 ft | 353 kts | 108° |
| 2026-05-05 11:50 | 49.71783 | 9.36504 | 22827 ft | 353 kts | 107° |
| 2026-05-05 11:51 | 49.71181 | 9.40201 | 22824 ft | 353 kts | 108° |
| 2026-05-05 11:51 | 49.70584 | 9.43847 | 22825 ft | 353 kts | 108° |
| 2026-05-05 11:51 | 49.69983 | 9.47516 | 22825 ft | 353 kts | 107° |
| 2026-05-05 11:51 | 49.69387 | 9.51153 | 22822 ft | 353 kts | 107° |
| 2026-05-05 11:52 | 49.68778 | 9.54850 | 22822 ft | 352 kts | 107° |
| 2026-05-05 11:52 | 49.68178 | 9.58476 | 22820 ft | 352 kts | 107° |
| 2026-05-05 11:52 | 49.67570 | 9.62152 | 22817 ft | 352 kts | 107° |
| 2026-05-05 11:52 | 49.67175 | 9.65879 | 22814 ft | 357 kts | 96° |
| 2026-05-05 11:53 | 49.67332 | 9.69728 | 22813 ft | 362 kts | 83° |
| 2026-05-05 11:53 | 49.67927 | 9.73497 | 22815 ft | 364 kts | 78° |
| 2026-05-05 11:53 | 49.68615 | 9.77231 | 22807 ft | 364 kts | 77° |
| 2026-05-05 11:53 | 49.69309 | 9.80975 | 22807 ft | 364 kts | 77° |
| 2026-05-05 11:54 | 49.69988 | 9.84724 | 22818 ft | 364 kts | 77° |
| 2026-05-05 11:54 | 49.70656 | 9.88478 | 22812 ft | 364 kts | 77° |
| 2026-05-05 11:54 | 49.71360 | 9.92228 | 22809 ft | 366 kts | 73° |
| 2026-05-05 11:54 | 49.72380 | 9.95818 | 22807 ft | 368 kts | 64° |
| 2026-05-05 11:55 | 49.73744 | 9.99166 | 22809 ft | 369 kts | 57° |
| 2026-05-05 11:55 | 49.75231 | 10.02385 | 22808 ft | 369 kts | 56° |
| 2026-05-05 11:55 | 49.76748 | 10.05609 | 22803 ft | 369 kts | 56° |
| 2026-05-05 11:55 | 49.78240 | 10.08787 | 22804 ft | 368 kts | 56° |
| 2026-05-05 11:56 | 49.79727 | 10.11979 | 22801 ft | 368 kts | 56° |
| 2026-05-05 11:56 | 49.81226 | 10.15211 | 22799 ft | 368 kts | 56° |
| 2026-05-05 11:56 | 49.82722 | 10.18451 | 22797 ft | 368 kts | 56° |
| 2026-05-05 11:56 | 49.84204 | 10.21668 | 22795 ft | 368 kts | 56° |
| 2026-05-05 11:57 | 49.85677 | 10.24873 | 22793 ft | 368 kts | 56° |
| 2026-05-05 11:57 | 49.87168 | 10.28119 | 22793 ft | 369 kts | 56° |
| 2026-05-05 11:57 | 49.88640 | 10.31331 | 22791 ft | 370 kts | 56° |
| 2026-05-05 11:57 | 49.90125 | 10.34576 | 22793 ft | 370 kts | 56° |
| 2026-05-05 11:58 | 49.91609 | 10.37825 | 22798 ft | 370 kts | 56° |
| 2026-05-05 11:58 | 49.93087 | 10.41063 | 22800 ft | 370 kts | 56° |
| 2026-05-05 11:58 | 49.94581 | 10.44339 | 22803 ft | 370 kts | 56° |
| 2026-05-05 11:58 | 49.96063 | 10.47590 | 22805 ft | 370 kts | 56° |
| 2026-05-05 11:59 | 49.97539 | 10.50835 | 22805 ft | 369 kts | 56° |
| 2026-05-05 11:59 | 49.99012 | 10.54076 | 22812 ft | 369 kts | 56° |
| 2026-05-05 11:59 | 50.00477 | 10.57305 | 22806 ft | 369 kts | 56° |
| 2026-05-05 11:59 | 50.01949 | 10.60552 | 22807 ft | 369 kts | 56° |
| 2026-05-05 12:00 | 50.03428 | 10.63822 | 22805 ft | 368 kts | 56° |
| 2026-05-05 12:00 | 50.04880 | 10.67034 | 22806 ft | 368 kts | 57° |
| 2026-05-05 12:00 | 50.06348 | 10.70285 | 22804 ft | 367 kts | 56° |
| 2026-05-05 12:00 | 50.07899 | 10.73473 | 22810 ft | 368 kts | 52° |
| 2026-05-05 12:01 | 50.09554 | 10.76463 | 22805 ft | 369 kts | 50° |
| 2026-05-05 12:01 | 50.11268 | 10.79437 | 22805 ft | 370 kts | 50° |
| 2026-05-05 12:01 | 50.12994 | 10.82416 | 22808 ft | 370 kts | 49° |
| 2026-05-05 12:01 | 50.14711 | 10.85391 | 22806 ft | 371 kts | 49° |
| 2026-05-05 12:02 | 50.16453 | 10.88419 | 22798 ft | 371 kts | 50° |
| 2026-05-05 12:02 | 50.18161 | 10.91400 | 22800 ft | 370 kts | 50° |
| 2026-05-05 12:02 | 50.19888 | 10.94417 | 22802 ft | 370 kts | 49° |
| 2026-05-05 12:02 | 50.21598 | 10.97405 | 22805 ft | 370 kts | 49° |
| 2026-05-05 12:03 | 50.23301 | 11.00382 | 22780 ft | 371 kts | 49° |
| 2026-05-05 12:03 | 50.25016 | 11.03384 | 22607 ft | 370 kts | 49° |
| 2026-05-05 12:03 | 50.26715 | 11.06361 | 22443 ft | 369 kts | 50° |
| 2026-05-05 12:03 | 50.28428 | 11.09366 | 22310 ft | 368 kts | 50° |
| 2026-05-05 12:04 | 50.30124 | 11.12349 | 22189 ft | 368 kts | 50° |
| 2026-05-05 12:04 | 50.31821 | 11.15336 | 22057 ft | 368 kts | 50° |
| 2026-05-05 12:04 | 50.33511 | 11.18315 | 21932 ft | 368 kts | 49° |
| 2026-05-05 12:04 | 50.35314 | 11.21092 | 21817 ft | 368 kts | 34° |
| 2026-05-05 12:05 | 50.37666 | 11.22647 | 21821 ft | 368 kts | 8° |
| 2026-05-05 12:05 | 50.40189 | 11.22754 | 21834 ft | 366 kts | 354° |
| 2026-05-05 12:05 | 50.42704 | 11.22492 | 21836 ft | 365 kts | 354° |
| 2026-05-05 12:05 | 50.45265 | 11.22223 | 21828 ft | 365 kts | 354° |
| 2026-05-05 12:06 | 50.47770 | 11.21989 | 21832 ft | 366 kts | 355° |
| 2026-05-05 12:06 | 50.50300 | 11.21775 | 21836 ft | 365 kts | 355° |
| 2026-05-05 12:06 | 50.52865 | 11.21575 | 21833 ft | 366 kts | 355° |
| 2026-05-05 12:06 | 50.55386 | 11.21385 | 21838 ft | 366 kts | 355° |
| 2026-05-05 12:07 | 50.57909 | 11.21197 | 21567 ft | 365 kts | 355° |
| 2026-05-05 12:07 | 50.60443 | 11.21009 | 21205 ft | 361 kts | 355° |
| 2026-05-05 12:07 | 50.62946 | 11.21162 | 21001 ft | 361 kts | 7° |
| 2026-05-05 12:07 | 50.65362 | 11.22129 | 20880 ft | 362 kts | 20° |
| 2026-05-05 12:08 | 50.67691 | 11.23707 | 20832 ft | 363 kts | 24° |
| 2026-05-05 12:08 | 50.69949 | 11.25383 | 20825 ft | 363 kts | 25° |
| 2026-05-05 12:08 | 50.72237 | 11.27100 | 20831 ft | 364 kts | 25° |
| 2026-05-05 12:08 | 50.74520 | 11.28802 | 20823 ft | 363 kts | 24° |
| 2026-05-05 12:09 | 50.76793 | 11.30482 | 20828 ft | 363 kts | 24° |
| 2026-05-05 12:09 | 50.79097 | 11.32177 | 20828 ft | 363 kts | 24° |
| 2026-05-05 12:09 | 50.81357 | 11.33835 | 20819 ft | 363 kts | 24° |
| 2026-05-05 12:09 | 50.83657 | 11.35522 | 20817 ft | 363 kts | 24° |
| 2026-05-05 12:10 | 50.85927 | 11.37189 | 20829 ft | 363 kts | 24° |
| 2026-05-05 12:10 | 50.88208 | 11.38868 | 20838 ft | 363 kts | 24° |
| 2026-05-05 12:10 | 50.90488 | 11.40544 | 20828 ft | 363 kts | 24° |
| 2026-05-05 12:10 | 50.92795 | 11.42240 | 20817 ft | 363 kts | 24° |
| 2026-05-05 12:11 | 50.95069 | 11.43915 | 20823 ft | 363 kts | 24° |
| 2026-05-05 12:11 | 50.97365 | 11.45607 | 20825 ft | 363 kts | 24° |
| 2026-05-05 12:11 | 50.99653 | 11.47294 | 20828 ft | 363 kts | 24° |
| 2026-05-05 12:11 | 51.01941 | 11.48985 | 20829 ft | 363 kts | 24° |
| 2026-05-05 12:12 | 51.04198 | 11.50655 | 20825 ft | 363 kts | 23° |
| 2026-05-05 12:12 | 51.06506 | 11.52364 | 20820 ft | 363 kts | 23° |
| 2026-05-05 12:12 | 51.08773 | 11.54049 | 20818 ft | 364 kts | 25° |
| 2026-05-05 12:12 | 51.10892 | 11.56263 | 20820 ft | 365 kts | 42° |
| 2026-05-05 12:13 | 51.12470 | 11.59363 | 20826 ft | 364 kts | 60° |
| 2026-05-05 12:13 | 51.13672 | 11.62936 | 20829 ft | 364 kts | 64° |
| 2026-05-05 12:13 | 51.14798 | 11.66531 | 20831 ft | 364 kts | 65° |
| 2026-05-05 12:13 | 51.15950 | 11.70200 | 20830 ft | 364 kts | 65° |
| 2026-05-05 12:14 | 51.17098 | 11.73795 | 20828 ft | 364 kts | 64° |
| 2026-05-05 12:14 | 51.18250 | 11.77358 | 20818 ft | 362 kts | 64° |
| 2026-05-05 12:14 | 51.19389 | 11.80859 | 20369 ft | 355 kts | 64° |
| 2026-05-05 12:14 | 51.20517 | 11.84331 | 19322 ft | 362 kts | 64° |
| 2026-05-05 12:15 | 51.21673 | 11.87890 | 18228 ft | 368 kts | 63° |
| 2026-05-05 12:15 | 51.22729 | 11.91605 | 17436 ft | 366 kts | 73° |
| 2026-05-05 12:15 | 51.23288 | 11.95497 | 16803 ft | 358 kts | 85° |
| 2026-05-05 12:15 | 51.23513 | 11.99389 | 16094 ft | 349 kts | 88° |
| 2026-05-05 12:16 | 51.23670 | 12.03204 | 15183 ft | 346 kts | 88° |
| 2026-05-05 12:16 | 51.23825 | 12.06936 | 14422 ft | 339 kts | 87° |
| 2026-05-05 12:16 | 51.23990 | 12.10645 | 13672 ft | 330 kts | 87° |
| 2026-05-05 12:16 | 51.24156 | 12.14234 | 12926 ft | 323 kts | 87° |
| 2026-05-05 12:17 | 51.24320 | 12.17717 | 12204 ft | 316 kts | 87° |
| 2026-05-05 12:17 | 51.24483 | 12.21194 | 11464 ft | 310 kts | 87° |
| 2026-05-05 12:17 | 51.24640 | 12.24549 | 10729 ft | 304 kts | 86° |
| 2026-05-05 12:17 | 51.24796 | 12.27881 | 9970 ft | 299 kts | 86° |
| 2026-05-05 12:18 | 51.24947 | 12.31133 | 9236 ft | 295 kts | 86° |
| 2026-05-05 12:18 | 51.25095 | 12.34371 | 8498 ft | 291 kts | 86° |
| 2026-05-05 12:18 | 51.25387 | 12.37506 | 7753 ft | 288 kts | 76° |
| 2026-05-05 12:18 | 51.26010 | 12.40482 | 7025 ft | 284 kts | 67° |
| 2026-05-05 12:19 | 51.26772 | 12.43316 | 6414 ft | 275 kts | 65° |
| 2026-05-05 12:19 | 51.27531 | 12.46046 | 6026 ft | 260 kts | 65° |
| 2026-05-05 12:19 | 51.28231 | 12.48583 | 5710 ft | 245 kts | 65° |
| 2026-05-05 12:19 | 51.28898 | 12.51020 | 5400 ft | 238 kts | 65° |
| 2026-05-05 12:20 | 51.29557 | 12.53450 | 5131 ft | 235 kts | 65° |
| 2026-05-05 12:20 | 51.30211 | 12.55841 | 4842 ft | 234 kts | 62° |
| 2026-05-05 12:20 | 51.31191 | 12.57848 | 4552 ft | 232 kts | 37° |
| 2026-05-05 12:20 | 51.32627 | 12.58976 | 4275 ft | 229 kts | 12° |
| 2026-05-05 12:21 | 51.34197 | 12.59067 | 3987 ft | 228 kts | 353° |
| 2026-05-05 12:21 | 51.35769 | 12.58672 | 3707 ft | 227 kts | 351° |
| 2026-05-05 12:21 | 51.37306 | 12.58254 | 3430 ft | 225 kts | 351° |
| 2026-05-05 12:21 | 51.38834 | 12.57845 | 3192 ft | 222 kts | 352° |
| 2026-05-05 12:22 | 51.40350 | 12.57452 | 3067 ft | 215 kts | 351° |
| 2026-05-05 12:22 | 51.41712 | 12.56684 | 2963 ft | 208 kts | 323° |
| 2026-05-05 12:22 | 51.42548 | 12.54922 | 2972 ft | 199 kts | 291° |
| 2026-05-05 12:22 | 51.42720 | 12.52776 | 3011 ft | 186 kts | 271° |
| 2026-05-05 12:23 | 51.42657 | 12.50791 | 2971 ft | 176 kts | 267° |
| 2026-05-05 12:23 | 51.42556 | 12.48905 | 2947 ft | 162 kts | 267° |
| 2026-05-05 12:23 | 51.42458 | 12.47124 | 2956 ft | 160 kts | 267° |
| 2026-05-05 12:23 | 51.42363 | 12.45345 | 2848 ft | 159 kts | 267° |
| 2026-05-05 12:24 | 51.42276 | 12.43652 | 2656 ft | 150 kts | 268° |
| 2026-05-05 12:24 | 51.42193 | 12.42014 | 2450 ft | 148 kts | 268° |
| 2026-05-05 12:24 | 51.42113 | 12.40355 | 2255 ft | 149 kts | 268° |
| 2026-05-05 12:24 | 51.42032 | 12.38711 | 2087 ft | 147 kts | 268° |
| 2026-05-05 12:25 | 51.41953 | 12.37097 | 1885 ft | 147 kts | 267° |
| 2026-05-05 12:25 | 51.41874 | 12.35464 | 1688 ft | 146 kts | 267° |
| 2026-05-05 12:25 | 51.41796 | 12.33863 | 1495 ft | 145 kts | 268° |
| 2026-05-05 12:25 | 51.41718 | 12.32270 | 1308 ft | 141 kts | 268° |
| 2026-05-05 12:26 | 51.41644 | 12.30710 | 1116 ft | 142 kts | 267° |
| 2026-05-05 12:26 | 51.41567 | 12.29104 | 942 ft | 145 kts | 268° |
| 2026-05-05 12:26 | 51.41491 | 12.27529 | 753 ft | 138 kts | 267° |
| 2026-05-05 12:26 | 51.41420 | 12.26081 | 552 ft | 126 kts | 266° |
| 2026-05-05 12:27 | 51.41360 | 12.24703 | 478 ft | 109 kts | 265° |
| 2026-05-05 12:27 | 51.41320 | 12.23934 | 478 ft | 47 kts | 266° |
| 2026-05-05 12:27 | 51.41301 | 12.23455 | 478 ft | 29 kts | 264° |
| 2026-05-05 12:27 | 51.41329 | 12.23257 | 478 ft | 17 kts | 349° |
| 2026-05-05 12:28 | 51.41450 | 12.23245 | 478 ft | 17 kts | 355° |
| 2026-05-05 12:28 | 51.41573 | 12.23228 | 478 ft | 15 kts | 349° |
| 2026-05-05 12:28 | 51.41625 | 12.23086 | 478 ft | 16 kts | 285° |
| 2026-05-05 12:28 | 51.41656 | 12.22910 | 478 ft | 17 kts | 284° |
| 2026-05-05 12:29 | 51.41687 | 12.22721 | 478 ft | 17 kts | 286° |
| 2026-05-05 12:29 | 51.41723 | 12.22529 | 478 ft | 18 kts | 287° |
| 2026-05-05 12:29 | 51.41756 | 12.22325 | 478 ft | 19 kts | 285° |
| 2026-05-05 12:29 | 51.41791 | 12.22121 | 478 ft | 19 kts | 285° |
| 2026-05-05 12:30 | 51.41815 | 12.21998 | 478 ft | 3 kts | 336° |
| 2026-05-05 12:30 | 51.41851 | 12.22011 | 478 ft | 7 kts | 17° |
| 2026-05-05 12:30 | 51.41900 | 12.22033 | 478 ft | 2 kts | 15° |
| 2026-05-05 12:30 | 51.41909 | 12.22037 | 478 ft | 0 kts | 15° |